Time,TemperatureF,DewpointF,PressureIn,WindDirection,WindDirectionDegrees,WindSpeedMPH,WindSpeedGustMPH,Humidity,HourlyPrecipIn,Conditions,Clouds,dailyrainin,SoftwareType,DateUTC
2013-02-02 00:03:00,-25.3,-30.4,30.80,NW,304,0.0,0.0,76,0.00,,---,0.00,VWS V13.01,2013-02-02 06:03:00,
2013-02-02 00:08:00,-25.5,-30.5,30.80,NW,304,0.0,0.0,76,0.00,,---,0.00,VWS V13.01,2013-02-02 06:08:00,
2013-02-02 00:13:00,-25.5,-30.5,30.80,NW,304,0.0,0.0,76,0.00,,---,0.00,VWS V13.01,2013-02-02 06:13:00,
2013-02-02 00:18:00,-25.7,-31.0,30.78,NW,304,0.0,0.0,75,0.00,,---,0.00,VWS V13.01,2013-02-02 06:18:00,
2013-02-02 00:23:00,-25.9,-31.2,30.78,NW,304,0.0,0.0,75,0.00,,---,0.00,VWS V13.01,2013-02-02 06:23:00,
2013-02-02 00:28:00,-25.9,-30.9,30.78,NW,304,0.0,0.0,76,0.00,,---,0.00,VWS V13.01,2013-02-02 06:28:00,
2013-02-02 00:33:00,-25.6,-30.4,30.78,NW,304,0.0,0.0,77,0.00,,---,0.00,VWS V13.01,2013-02-02 06:33:00,
2013-02-02 00:38:00,-25.4,-30.2,30.78,NW,304,0.0,0.0,77,0.00,,---,0.00,VWS V13.01,2013-02-02 06:38:00,
2013-02-02 00:43:00,-25.2,-30.0,30.78,NW,304,0.0,0.0,77,0.00,,---,0.00,VWS V13.01,2013-02-02 06:43:00,
2013-02-02 00:48:00,-24.8,-29.4,30.78,NW,304,0.0,0.0,78,0.00,,---,0.00,VWS V13.01,2013-02-02 06:48:00,
2013-02-02 00:53:00,-24.6,-29.2,30.78,NW,304,0.0,0.0,78,0.00,,---,0.00,VWS V13.01,2013-02-02 06:53:00,
2013-02-02 00:58:00,-24.9,-30.0,30.78,NW,304,0.0,0.0,76,0.00,,---,0.00,VWS V13.01,2013-02-02 06:58:00,
2013-02-02 01:03:00,-25.2,-30.3,30.78,NW,304,0.0,0.0,76,0.00,,---,0.00,VWS V13.01,2013-02-02 07:03:00,
2013-02-02 01:08:00,-25.5,-30.5,30.78,NW,304,0.0,0.0,76,0.00,,---,0.00,VWS V13.01,2013-02-02 07:08:00,
2013-02-02 01:13:00,-25.9,-31.2,30.78,NW,304,0.0,0.0,75,0.00,,---,0.00,VWS V13.01,2013-02-02 07:13:00,
2013-02-02 01:18:00,-26.2,-31.5,30.76,NW,304,0.0,0.0,75,0.00,,---,0.00,VWS V13.01,2013-02-02 07:18:00,
2013-02-02 01:23:00,-26.4,-31.7,30.76,NW,304,0.0,0.0,75,0.00,,---,0.00,VWS V13.01,2013-02-02 07:23:00,
2013-02-02 01:29:00,-26.4,-31.4,30.76,NW,304,0.0,0.0,76,0.00,,---,0.00,VWS V13.01,2013-02-02 07:29:00,
2013-02-02 01:34:00,-26.2,-31.2,30.76,NW,304,0.0,0.0,76,0.00,,---,0.00,VWS V13.01,2013-02-02 07:34:00,
2013-02-02 01:39:00,-26.2,-31.0,30.76,NW,304,0.0,0.0,77,0.00,,---,0.00,VWS V13.01,2013-02-02 07:39:00,
2013-02-02 01:44:00,-26.1,-30.9,30.76,NW,304,0.0,0.0,77,0.00,,---,0.00,VWS V13.01,2013-02-02 07:44:00,
2013-02-02 01:49:00,-26.0,-30.8,30.77,NW,304,0.0,0.0,77,0.00,,---,0.00,VWS V13.01,2013-02-02 07:49:00,
2013-02-02 01:54:00,-25.8,-30.6,30.77,NW,304,0.0,0.0,77,0.00,,---,0.00,VWS V13.01,2013-02-02 07:54:00,
2013-02-02 01:59:00,-25.6,-30.4,30.77,NW,304,0.0,0.0,77,0.00,,---,0.00,VWS V13.01,2013-02-02 07:59:00,
2013-02-02 02:06:00,-25.3,-29.9,30.78,NW,304,0.0,0.0,78,0.00,,---,0.00,VWS V13.01,2013-02-02 08:06:00,
2013-02-02 02:11:00,-24.9,-29.5,30.78,NW,304,0.0,0.0,78,0.00,,---,0.00,VWS V13.01,2013-02-02 08:11:00,
2013-02-02 02:16:00,-24.6,-29.2,30.78,NW,304,0.0,0.0,78,0.00,,---,0.00,VWS V13.01,2013-02-02 08:16:00,
2013-02-02 02:21:00,-24.8,-29.6,30.76,NW,304,0.0,0.0,77,0.00,,---,0.00,VWS V13.01,2013-02-02 08:21:00,
2013-02-02 02:26:00,-25.0,-30.1,30.76,NW,304,0.0,0.0,76,0.00,,---,0.00,VWS V13.01,2013-02-02 08:26:00,
2013-02-02 02:31:00,-25.3,-30.4,30.76,NW,304,0.0,0.0,76,0.00,,---,0.00,VWS V13.01,2013-02-02 08:31:00,
2013-02-02 02:36:00,-25.7,-31.0,30.76,NW,304,0.0,0.0,75,0.00,,---,0.00,VWS V13.01,2013-02-02 08:36:00,
2013-02-02 02:41:00,-26.5,-31.8,30.76,NW,304,0.0,0.0,75,0.00,,---,0.00,VWS V13.01,2013-02-02 08:41:00,
2013-02-02 02:46:00,-26.9,-32.4,30.78,NW,304,0.0,0.0,74,0.00,,---,0.00,VWS V13.01,2013-02-02 08:46:00,
2013-02-02 02:51:00,-27.2,-32.7,30.78,NW,304,0.0,0.0,74,0.00,,---,0.00,VWS V13.01,2013-02-02 08:51:00,
2013-02-02 02:56:00,-27.7,-33.4,30.78,NW,304,0.0,0.0,73,0.00,,---,0.00,VWS V13.01,2013-02-02 08:56:00,
2013-02-02 03:01:00,-27.9,-33.4,30.80,NW,304,0.0,0.0,74,0.00,,---,0.00,VWS V13.01,2013-02-02 09:01:00,
2013-02-02 03:06:00,-27.9,-33.1,30.80,NW,304,0.0,0.0,75,0.00,,---,0.00,VWS V13.01,2013-02-02 09:06:00,
2013-02-02 03:11:00,-27.9,-33.1,30.80,NW,304,0.0,0.0,75,0.00,,---,0.00,VWS V13.01,2013-02-02 09:11:00,
2013-02-02 03:16:00,-27.9,-33.1,30.80,NW,304,0.0,0.0,75,0.00,,---,0.00,VWS V13.01,2013-02-02 09:16:00,
2013-02-02 03:21:00,-28.0,-33.2,30.80,NW,304,0.0,0.0,75,0.00,,---,0.00,VWS V13.01,2013-02-02 09:21:00,
2013-02-02 03:26:00,-28.2,-33.7,30.80,NW,304,0.0,0.0,74,0.00,,---,0.00,VWS V13.01,2013-02-02 09:26:00,
2013-02-02 03:31:00,-28.4,-33.8,30.80,NW,304,0.0,0.0,74,0.00,,---,0.00,VWS V13.01,2013-02-02 09:31:00,
2013-02-02 03:36:00,-28.4,-33.8,30.80,NW,304,0.0,0.0,74,0.00,,---,0.00,VWS V13.01,2013-02-02 09:36:00,
2013-02-02 03:41:00,-28.6,-34.0,30.80,NW,304,0.0,0.0,74,0.00,,---,0.00,VWS V13.01,2013-02-02 09:41:00,
2013-02-02 03:46:00,-28.7,-34.1,30.80,NW,304,0.0,0.0,74,0.00,,---,0.00,VWS V13.01,2013-02-02 09:46:00,
2013-02-02 03:51:00,-28.8,-34.2,30.80,NW,304,0.0,0.0,74,0.00,,---,0.00,VWS V13.01,2013-02-02 09:51:00,
2013-02-02 03:56:00,-28.9,-34.3,30.80,NW,304,0.0,0.0,74,0.00,,---,0.00,VWS V13.01,2013-02-02 09:56:00,
2013-02-02 04:02:00,-29.0,-34.4,30.80,NW,304,0.0,0.0,74,0.00,,---,0.00,VWS V13.01,2013-02-02 10:02:00,
2013-02-02 04:07:00,-29.1,-34.5,30.80,NW,304,0.0,0.0,74,0.00,,---,0.00,VWS V13.01,2013-02-02 10:07:00,
2013-02-02 04:12:00,-29.1,-34.5,30.80,NW,304,0.0,0.0,74,0.00,,---,0.00,VWS V13.01,2013-02-02 10:12:00,
2013-02-02 04:17:00,-29.2,-34.6,30.83,NW,304,0.0,0.0,74,0.00,,---,0.00,VWS V13.01,2013-02-02 10:17:00,
2013-02-02 04:22:00,-29.2,-34.6,30.83,NW,304,0.0,0.0,74,0.00,,---,0.00,VWS V13.01,2013-02-02 10:22:00,
2013-02-02 04:27:00,-29.2,-34.6,30.83,NW,304,0.0,0.0,74,0.00,,---,0.00,VWS V13.01,2013-02-02 10:27:00,
2013-02-02 04:32:00,-29.2,-34.6,30.83,NW,304,0.0,0.0,74,0.00,,---,0.00,VWS V13.01,2013-02-02 10:32:00,
2013-02-02 04:37:00,-29.4,-34.8,30.83,NW,304,0.0,0.0,74,0.00,,---,0.00,VWS V13.01,2013-02-02 10:37:00,
2013-02-02 04:42:00,-29.5,-34.9,30.83,NW,304,0.0,0.0,74,0.00,,---,0.00,VWS V13.01,2013-02-02 10:42:00,
2013-02-02 04:47:00,-29.5,-34.9,30.84,NW,304,0.0,0.0,74,0.00,,---,0.00,VWS V13.01,2013-02-02 10:47:00,
2013-02-02 04:52:00,-29.6,-35.0,30.84,NW,304,0.0,0.0,74,0.00,,---,0.00,VWS V13.01,2013-02-02 10:52:00,
2013-02-02 04:57:00,-29.6,-35.0,30.84,NW,304,0.0,0.0,74,0.00,,---,0.00,VWS V13.01,2013-02-02 10:57:00,
2013-02-02 05:02:00,-29.8,-35.2,30.84,NW,304,0.0,0.0,74,0.00,,---,0.00,VWS V13.01,2013-02-02 11:02:00,
2013-02-02 05:07:00,-29.9,-35.3,30.84,NW,304,0.0,0.0,74,0.00,,---,0.00,VWS V13.01,2013-02-02 11:07:00,
2013-02-02 05:12:00,-29.8,-35.2,30.84,NW,304,0.0,0.0,74,0.00,,---,0.00,VWS V13.01,2013-02-02 11:12:00,
2013-02-02 05:17:00,-29.9,-35.3,30.88,NW,304,0.0,0.0,74,0.00,,---,0.00,VWS V13.01,2013-02-02 11:17:00,
2013-02-02 05:22:00,-29.9,-35.3,30.88,NW,304,0.0,0.0,74,0.00,,---,0.00,VWS V13.01,2013-02-02 11:22:00,
2013-02-02 05:27:00,-30.1,-35.5,30.88,NW,304,0.0,0.0,74,0.00,,---,0.00,VWS V13.01,2013-02-02 11:27:00,
2013-02-02 05:32:00,-30.1,-35.5,30.88,NW,304,0.0,0.0,74,0.00,,---,0.00,VWS V13.01,2013-02-02 11:32:00,
2013-02-02 05:37:00,-30.2,-35.6,30.88,NW,304,0.0,0.0,74,0.00,,---,0.00,VWS V13.01,2013-02-02 11:37:00,
2013-02-02 05:42:00,-30.4,-35.8,30.88,NW,304,0.0,0.0,74,0.00,,---,0.00,VWS V13.01,2013-02-02 11:42:00,
2013-02-02 05:47:00,-30.4,-35.8,30.88,NW,304,0.0,0.0,74,0.00,,---,0.00,VWS V13.01,2013-02-02 11:47:00,
2013-02-02 05:52:00,-30.4,-35.8,30.88,NW,304,0.0,0.0,74,0.00,,---,0.00,VWS V13.01,2013-02-02 11:52:00,
2013-02-02 05:57:00,-30.5,-36.1,30.88,NW,304,0.0,0.0,73,0.00,,---,0.00,VWS V13.01,2013-02-02 11:57:00,
2013-02-02 06:02:00,-30.6,-36.2,30.90,NW,304,0.0,0.0,73,0.00,,---,0.00,VWS V13.01,2013-02-02 12:02:00,
2013-02-02 06:08:00,-30.6,-36.0,30.90,NW,304,0.0,0.0,74,0.00,,---,0.00,VWS V13.01,2013-02-02 12:08:00,
2013-02-02 06:13:00,-30.8,-36.4,30.90,NW,304,0.0,0.0,73,0.00,,---,0.00,VWS V13.01,2013-02-02 12:13:00,
2013-02-02 06:18:00,-30.9,-36.5,30.89,NW,304,0.0,0.0,73,0.00,,---,0.00,VWS V13.01,2013-02-02 12:18:00,
2013-02-02 06:23:00,-30.9,-36.3,30.89,NW,304,0.0,0.0,74,0.00,,---,0.00,VWS V13.01,2013-02-02 12:23:00,
2013-02-02 06:28:00,-30.9,-36.3,30.89,NW,304,0.0,0.0,74,0.00,,---,0.00,VWS V13.01,2013-02-02 12:28:00,
2013-02-02 06:33:00,-30.9,-36.3,30.89,NW,304,0.0,0.0,74,0.00,,---,0.00,VWS V13.01,2013-02-02 12:33:00,
2013-02-02 06:38:00,-30.9,-36.3,30.89,NW,304,0.0,0.0,74,0.00,,---,0.00,VWS V13.01,2013-02-02 12:38:00,
2013-02-02 06:43:00,-31.0,-33.3,30.89,NW,304,0.0,0.0,88,0.00,,---,0.00,VWS V13.01,2013-02-02 12:43:00,
2013-02-02 06:48:00,-30.9,-36.3,30.88,NW,304,0.0,0.0,74,0.00,,---,0.00,VWS V13.01,2013-02-02 12:48:00,
2013-02-02 06:53:00,-30.9,-36.3,30.88,NW,304,0.0,0.0,74,0.00,,---,0.00,VWS V13.01,2013-02-02 12:53:00,
2013-02-02 06:58:00,-30.9,-36.3,30.88,NW,304,0.0,0.0,74,0.00,,---,0.00,VWS V13.01,2013-02-02 12:58:00,
2013-02-02 07:03:00,-31.0,-36.4,30.88,NW,304,0.0,0.0,74,0.00,,---,0.00,VWS V13.01,2013-02-02 13:03:00,
2013-02-02 07:08:00,-31.1,-36.7,30.88,NW,304,0.0,0.0,73,0.00,,---,0.00,VWS V13.01,2013-02-02 13:08:00,
2013-02-02 07:13:00,-31.2,-36.6,30.88,NW,304,0.0,0.0,74,0.00,,---,0.00,VWS V13.01,2013-02-02 13:13:00,
2013-02-02 07:18:00,-31.3,-36.7,30.92,NW,304,0.0,0.0,74,0.00,,---,0.00,VWS V13.01,2013-02-02 13:18:00,
2013-02-02 07:23:00,-31.6,-37.2,30.92,NW,304,0.0,0.0,73,0.00,,---,0.00,VWS V13.01,2013-02-02 13:23:00,
2013-02-02 07:28:00,-31.6,-37.0,30.92,NW,304,0.0,0.0,74,0.00,,---,0.00,VWS V13.01,2013-02-02 13:28:00,
2013-02-02 07:33:00,-31.4,-36.8,30.93,NW,304,0.0,0.0,74,0.00,,---,0.00,VWS V13.01,2013-02-02 13:33:00,
2013-02-02 07:38:00,-31.3,-36.7,30.93,NW,304,0.0,0.0,74,0.00,,---,0.00,VWS V13.01,2013-02-02 13:38:00,
2013-02-02 07:43:00,-31.3,-36.7,30.93,NW,304,0.0,0.0,74,0.00,,---,0.00,VWS V13.01,2013-02-02 13:43:00,
2013-02-02 07:49:00,-31.2,-36.6,30.91,NW,304,0.0,0.0,74,0.00,,---,0.00,VWS V13.01,2013-02-02 13:49:00,
2013-02-02 07:54:00,-30.8,-36.0,30.91,NW,304,0.0,0.0,75,0.00,,---,0.00,VWS V13.01,2013-02-02 13:54:00,
2013-02-02 07:59:00,-30.1,-35.0,30.91,NW,304,0.0,0.0,76,0.00,,---,0.00,VWS V13.01,2013-02-02 13:59:00,
2013-02-02 08:04:00,-29.1,-34.1,30.91,NW,304,0.0,0.0,76,0.00,,---,0.00,VWS V13.01,2013-02-02 14:04:00,
2013-02-02 08:09:00,-28.5,-33.5,30.91,NW,304,0.0,0.0,76,0.00,,---,0.00,VWS V13.01,2013-02-02 14:09:00,
2013-02-02 08:14:00,-27.7,-32.7,30.91,NW,304,0.0,0.0,76,0.00,,---,0.00,VWS V13.01,2013-02-02 14:14:00,
2013-02-02 08:19:00,-26.8,-31.8,30.91,NW,304,0.0,0.0,76,0.00,,---,0.00,VWS V13.01,2013-02-02 14:19:00,
2013-02-02 08:24:00,-25.9,-30.7,30.91,NW,304,0.0,0.0,77,0.00,,---,0.00,VWS V13.01,2013-02-02 14:24:00,
2013-02-02 08:29:00,-25.0,-29.8,30.91,NW,304,0.0,0.0,77,0.00,,---,0.00,VWS V13.01,2013-02-02 14:29:00,
2013-02-02 08:34:00,-23.9,-28.5,30.89,NW,304,0.0,0.0,78,0.00,,---,0.00,VWS V13.01,2013-02-02 14:34:00,
2013-02-02 08:39:00,-22.5,-26.9,30.89,NW,304,0.0,0.0,79,0.00,,---,0.00,VWS V13.01,2013-02-02 14:39:00,
2013-02-02 08:44:00,-20.8,-25.0,30.89,NW,304,0.0,0.0,80,0.00,,---,0.00,VWS V13.01,2013-02-02 14:44:00,
2013-02-02 08:49:00,-18.8,-22.8,30.83,NW,304,0.0,1.0,81,0.00,,---,0.00,VWS V13.01,2013-02-02 14:49:00,
2013-02-02 08:54:00,-17.0,-21.1,30.83,NW,304,0.0,2.0,81,0.00,,---,0.00,VWS V13.01,2013-02-02 14:54:00,
2013-02-02 08:59:00,-15.7,-19.8,30.83,NW,304,0.0,2.0,81,0.00,,---,0.00,VWS V13.01,2013-02-02 14:59:00,
2013-02-02 09:04:00,-14.7,-18.8,30.80,NW,304,0.0,2.0,81,0.00,,---,0.00,VWS V13.01,2013-02-02 15:04:00,
2013-02-02 09:09:00,-13.9,-18.3,30.80,NW,304,2.0,3.0,80,0.00,,---,0.00,VWS V13.01,2013-02-02 15:09:00,
2013-02-02 09:14:00,-13.2,-17.4,30.80,NW,304,0.0,3.0,81,0.00,,---,0.00,VWS V13.01,2013-02-02 15:14:00,
2013-02-02 09:19:00,-12.4,-16.8,30.78,NW,304,0.0,1.0,80,0.00,,---,0.00,VWS V13.01,2013-02-02 15:19:00,
2013-02-02 09:25:00,-11.5,-15.7,30.78,NW,304,0.0,1.0,81,0.00,,---,0.00,VWS V13.01,2013-02-02 15:25:00,
2013-02-02 09:30:00,-10.4,-14.9,30.78,NW,304,2.0,2.0,80,0.00,,---,0.00,VWS V13.01,2013-02-02 15:30:00,
2013-02-02 09:35:00,-10.2,-14.9,30.76,NW,304,2.0,4.0,79,0.00,,---,0.00,VWS V13.01,2013-02-02 15:35:00,
2013-02-02 09:40:00,-10.0,-14.7,30.76,NW,304,2.0,5.0,79,0.00,,---,0.00,VWS V13.01,2013-02-02 15:40:00,
2013-02-02 09:45:00,-9.5,-14.2,30.76,NW,308,3.0,5.0,79,0.00,,---,0.00,VWS V13.01,2013-02-02 15:45:00,
2013-02-02 09:50:00,-9.0,-14.2,30.74,NW,307,2.0,5.0,77,0.00,,---,0.00,VWS V13.01,2013-02-02 15:50:00,
2013-02-02 09:55:00,-8.8,-14.1,30.74,West,275,3.0,5.0,77,0.00,,---,0.00,VWS V13.01,2013-02-02 15:55:00,
2013-02-02 10:00:00,-8.2,-13.5,30.74,West,275,2.0,5.0,77,0.00,,---,0.00,VWS V13.01,2013-02-02 16:00:00,
2013-02-02 10:05:00,-7.9,-13.7,30.74,WNW,283,2.0,6.0,75,0.00,,---,0.00,VWS V13.01,2013-02-02 16:05:00,
2013-02-02 10:10:00,-7.9,-13.7,30.74,NNW,339,2.0,7.0,75,0.00,,---,0.00,VWS V13.01,2013-02-02 16:10:00,
2013-02-02 10:15:00,-7.5,-13.3,30.74,NW,323,4.0,7.0,75,0.00,,---,0.00,VWS V13.01,2013-02-02 16:15:00,
2013-02-02 10:20:00,-7.1,-12.9,30.74,NW,313,4.0,5.0,75,0.00,,---,0.00,VWS V13.01,2013-02-02 16:20:00,
2013-02-02 10:25:00,-6.5,-12.9,30.74,WNW,290,5.0,7.0,73,0.00,,---,0.00,VWS V13.01,2013-02-02 16:25:00,
2013-02-02 10:30:00,-6.2,-12.6,30.74,WNW,295,2.0,7.0,73,0.00,,---,0.00,VWS V13.01,2013-02-02 16:30:00,
2013-02-02 10:35:00,-5.5,-11.9,30.72,WNW,294,3.0,6.0,73,0.00,,---,0.00,VWS V13.01,2013-02-02 16:35:00,
2013-02-02 10:40:00,-4.9,-11.6,30.72,West,259,1.0,6.0,72,0.00,,---,0.00,VWS V13.01,2013-02-02 16:40:00,
2013-02-02 10:46:00,-4.5,-11.2,30.72,SSW,212,4.0,6.0,72,0.00,,---,0.00,VWS V13.01,2013-02-02 16:46:00,
2013-02-02 10:51:00,-3.7,-10.4,30.72,SSW,213,0.0,3.0,72,0.00,,---,0.00,VWS V13.01,2013-02-02 16:51:00,
2013-02-02 10:56:00,-3.4,-10.4,30.72,SW,225,0.0,4.0,71,0.00,,---,0.00,VWS V13.01,2013-02-02 16:56:00,
2013-02-02 11:01:00,-3.0,-10.6,30.72,WSW,248,3.0,5.0,69,0.00,,---,0.00,VWS V13.01,2013-02-02 17:01:00,
2013-02-02 11:06:00,-3.0,-10.9,30.70,SW,227,5.0,7.0,68,0.00,,---,0.00,VWS V13.01,2013-02-02 17:06:00,
2013-02-02 11:11:00,-2.8,-10.7,30.70,WSW,258,1.0,7.0,68,0.00,,---,0.00,VWS V13.01,2013-02-02 17:11:00,
2013-02-02 11:16:00,-2.8,-11.0,30.71,WNW,285,4.0,7.0,67,0.00,,---,0.00,VWS V13.01,2013-02-02 17:16:00,
2013-02-02 11:21:00,-2.6,-10.8,30.71,SW,230,5.0,8.0,67,0.00,,---,0.00,VWS V13.01,2013-02-02 17:21:00,
2013-02-02 11:26:00,-2.4,-10.6,30.71,SW,223,2.0,8.0,67,0.00,,---,0.00,VWS V13.01,2013-02-02 17:26:00,
2013-02-02 11:31:00,-1.8,-9.8,30.69,NW,317,5.0,8.0,68,0.00,,---,0.00,VWS V13.01,2013-02-02 17:31:00,
2013-02-02 11:36:00,-1.8,-9.8,30.69,NW,318,2.0,4.0,68,0.00,,---,0.00,VWS V13.01,2013-02-02 17:36:00,
2013-02-02 11:41:00,-1.6,-9.3,30.69,NNW,338,3.0,4.0,69,0.00,,---,0.00,VWS V13.01,2013-02-02 17:41:00,
2013-02-02 11:46:00,-1.3,-9.3,30.68,NNW,344,2.0,6.0,68,0.00,,---,0.00,VWS V13.01,2013-02-02 17:46:00,
2013-02-02 11:51:00,-1.6,-9.9,30.68,NNW,348,2.0,7.0,67,0.00,,---,0.00,VWS V13.01,2013-02-02 17:51:00,
2013-02-02 11:56:00,-1.5,-10.1,30.68,North,350,2.0,7.0,66,0.00,,---,0.00,VWS V13.01,2013-02-02 17:56:00,
2013-02-02 12:01:00,-1.3,-9.3,30.67,NNW,338,1.0,7.0,68,0.00,,---,0.00,VWS V13.01,2013-02-02 18:01:00,
2013-02-02 12:06:00,-0.7,-9.0,30.67,NW,319,3.0,7.0,67,0.00,,---,0.00,VWS V13.01,2013-02-02 18:06:00,
2013-02-02 12:11:00,-0.4,-9.0,30.67,NNW,330,2.0,7.0,66,0.00,,---,0.00,VWS V13.01,2013-02-02 18:11:00,
2013-02-02 12:16:00,0.6,-8.1,30.64,NW,324,2.0,7.0,66,0.00,,---,0.00,VWS V13.01,2013-02-02 18:16:00,
2013-02-02 12:21:00,0.8,-8.5,30.64,NW,319,1.0,5.0,64,0.00,,---,0.00,VWS V13.01,2013-02-02 18:21:00,
2013-02-02 12:29:00,1.2,-8.1,30.64,NW,315,4.0,5.0,64,0.00,,---,0.00,VWS V13.01,2013-02-02 18:29:00,
2013-02-02 12:34:00,1.1,-8.2,30.63,NNW,337,0.0,5.0,64,0.00,,---,0.00,VWS V13.01,2013-02-02 18:34:00,
2013-02-02 12:39:00,1.5,-7.8,30.63,North,350,4.0,7.0,64,0.00,,---,0.00,VWS V13.01,2013-02-02 18:39:00,
2013-02-02 12:44:00,1.4,-8.3,30.63,North,360,1.0,7.0,63,0.00,,---,0.00,VWS V13.01,2013-02-02 18:44:00,
2013-02-02 12:50:00,1.3,-8.4,30.63,NW,322,5.0,6.0,63,0.00,,---,0.00,VWS V13.01,2013-02-02 18:50:00,
2013-02-02 12:55:00,1.8,-7.2,30.63,NW,314,2.0,7.0,65,0.00,,---,0.00,VWS V13.01,2013-02-02 18:55:00,
2013-02-02 13:00:00,2.6,-7.1,30.63,NW,309,3.0,7.0,63,0.00,,---,0.00,VWS V13.01,2013-02-02 19:00:00,
2013-02-02 13:05:00,2.0,-8.0,30.59,NNW,334,6.0,7.0,62,0.00,,---,0.00,VWS V13.01,2013-02-02 19:05:00,
2013-02-02 13:11:00,1.8,-7.9,30.59,NNW,327,5.0,11.0,63,0.00,,---,0.00,VWS V13.01,2013-02-02 19:11:00,
2013-02-02 13:16:00,1.7,-8.3,30.61,NNW,327,8.0,11.0,62,0.00,,---,0.00,VWS V13.01,2013-02-02 19:16:00,
2013-02-02 13:21:00,1.4,-8.3,30.61,NNW,338,2.0,10.0,63,0.00,,---,0.00,VWS V13.01,2013-02-02 19:21:00,
2013-02-02 13:26:00,1.7,-8.0,30.61,NW,322,0.0,10.0,63,0.00,,---,0.00,VWS V13.01,2013-02-02 19:26:00,
2013-02-02 13:32:00,2.0,-8.0,30.60,NNW,334,0.0,0.0,62,0.00,,---,0.00,VWS V13.01,2013-02-02 19:32:00,
2013-02-02 13:37:00,2.0,-7.7,30.60,North,5,3.0,9.0,63,0.00,,---,0.00,VWS V13.01,2013-02-02 19:37:00,
2013-02-02 13:42:00,2.6,-7.4,30.60,NNW,347,4.0,9.0,62,0.00,,---,0.00,VWS V13.01,2013-02-02 19:42:00,
2013-02-02 13:48:00,2.7,-7.3,30.57,WNW,303,3.0,5.0,62,0.00,,---,0.00,VWS V13.01,2013-02-02 19:48:00,
2013-02-02 13:53:00,3.2,-6.5,30.57,NW,315,4.0,5.0,63,0.00,,---,0.00,VWS V13.01,2013-02-02 19:53:00,
2013-02-02 13:58:00,4.3,-5.5,30.57,WNW,286,3.0,9.0,63,0.00,,---,0.00,VWS V13.01,2013-02-02 19:58:00,
2013-02-02 14:03:00,5.2,-5.7,30.54,West,274,1.0,2.0,60,0.00,,---,0.00,VWS V13.01,2013-02-02 20:03:00,
2013-02-02 14:09:00,5.7,-5.9,30.54,WNW,285,1.0,7.0,58,0.00,,---,0.00,VWS V13.01,2013-02-02 20:09:00,
2013-02-02 14:14:00,5.8,-5.4,30.54,NW,304,5.0,7.0,59,0.00,,---,0.00,VWS V13.01,2013-02-02 20:14:00,
2013-02-02 14:19:00,5.9,-5.3,30.55,WNW,289,0.0,6.0,59,0.00,,---,0.00,VWS V13.01,2013-02-02 20:19:00,
2013-02-02 14:24:00,6.2,-5.8,30.55,SSW,192,0.0,8.0,57,0.00,,---,0.00,VWS V13.01,2013-02-02 20:24:00,
2013-02-02 14:30:00,6.3,-6.0,30.55,SW,236,3.0,12.0,56,0.00,,---,0.00,VWS V13.01,2013-02-02 20:30:00,
2013-02-02 14:35:00,6.4,-5.9,30.56,West,268,4.0,12.0,56,0.00,,---,0.00,VWS V13.01,2013-02-02 20:35:00,
2013-02-02 14:40:00,6.4,-6.3,30.56,West,273,3.0,12.0,55,0.00,,---,0.00,VWS V13.01,2013-02-02 20:40:00,
2013-02-02 14:45:00,6.3,-5.7,30.56,WSW,252,6.0,12.0,57,0.00,,---,0.00,VWS V13.01,2013-02-02 20:45:00,
2013-02-02 14:51:00,6.1,-6.2,30.56,WSW,243,2.0,12.0,56,0.00,,---,0.00,VWS V13.01,2013-02-02 20:51:00,
2013-02-02 14:56:00,5.8,-6.1,30.56,WNW,291,2.0,12.0,57,0.00,,---,0.00,VWS V13.01,2013-02-02 20:56:00,
2013-02-02 15:01:00,6.2,-5.4,30.56,WNW,294,2.0,12.0,58,0.00,,---,0.00,VWS V13.01,2013-02-02 21:01:00,
2013-02-02 15:06:00,6.5,-5.1,30.56,WNW,292,0.0,5.0,58,0.00,,---,0.00,VWS V13.01,2013-02-02 21:06:00,
2013-02-02 15:12:00,6.9,-5.5,30.56,WSW,257,1.0,8.0,56,0.00,,---,0.00,VWS V13.01,2013-02-02 21:12:00,
2013-02-02 15:17:00,6.7,-5.7,30.55,West,271,2.0,8.0,56,0.00,,---,0.00,VWS V13.01,2013-02-02 21:17:00,
2013-02-02 15:22:00,6.3,-6.0,30.55,SW,219,2.0,10.0,56,0.00,,---,0.00,VWS V13.01,2013-02-02 21:22:00,
2013-02-02 15:27:00,5.9,-6.4,30.55,SSW,212,7.0,11.0,56,0.00,,---,0.00,VWS V13.01,2013-02-02 21:27:00,
2013-02-02 15:32:00,5.7,-6.2,30.55,SW,222,4.0,6.0,57,0.00,,---,0.00,VWS V13.01,2013-02-02 21:32:00,
2013-02-02 15:37:00,5.5,-6.4,30.55,SSW,212,2.0,11.0,57,0.00,,---,0.00,VWS V13.01,2013-02-02 21:37:00,
2013-02-02 15:43:00,5.6,-6.0,30.55,West,266,1.0,11.0,58,0.00,,---,0.00,VWS V13.01,2013-02-02 21:43:00,
2013-02-02 15:48:00,6.0,-5.6,30.54,WSW,245,1.0,6.0,58,0.00,,---,0.00,VWS V13.01,2013-02-02 21:48:00,
2013-02-02 15:53:00,5.8,-6.1,30.54,SW,233,2.0,8.0,57,0.00,,---,0.00,VWS V13.01,2013-02-02 21:53:00,
2013-02-02 15:58:00,5.7,-5.9,30.54,SW,227,1.0,10.0,58,0.00,,---,0.00,VWS V13.01,2013-02-02 21:58:00,
2013-02-02 16:04:00,5.5,-6.1,30.53,SW,227,1.0,5.0,58,0.00,,---,0.00,VWS V13.01,2013-02-02 22:04:00,
2013-02-02 16:09:00,4.9,-4.0,30.53,WSW,246,4.0,6.0,66,0.00,,---,0.00,VWS V13.01,2013-02-02 22:09:00,
2013-02-02 16:14:00,4.4,-6.4,30.53,WSW,238,2.0,6.0,60,0.00,,---,0.00,VWS V13.01,2013-02-02 22:14:00,
2013-02-02 16:19:00,4.1,-6.3,30.57,WSW,244,3.0,7.0,61,0.00,,---,0.00,VWS V13.01,2013-02-02 22:19:00,
2013-02-02 16:24:00,4.1,-6.0,30.57,WSW,257,2.0,7.0,62,0.00,,---,0.00,VWS V13.01,2013-02-02 22:24:00,
2013-02-02 16:30:00,4.1,-5.7,30.57,WSW,241,1.0,7.0,63,0.00,,---,0.00,VWS V13.01,2013-02-02 22:30:00,
2013-02-02 16:35:00,4.1,-5.7,30.56,WSW,241,2.0,5.0,63,0.00,,---,0.00,VWS V13.01,2013-02-02 22:35:00,
2013-02-02 16:40:00,4.1,-5.7,30.56,WSW,252,2.0,5.0,63,0.00,,---,0.00,VWS V13.01,2013-02-02 22:40:00,
2013-02-02 16:45:00,4.1,-5.7,30.56,WSW,257,2.0,5.0,63,0.00,,---,0.00,VWS V13.01,2013-02-02 22:45:00,
2013-02-02 16:51:00,4.0,-5.8,30.55,WSW,251,0.0,4.0,63,0.00,,---,0.00,VWS V13.01,2013-02-02 22:51:00,
2013-02-02 16:56:00,3.7,-6.1,30.55,WSW,251,0.0,4.0,63,0.00,,---,0.00,VWS V13.01,2013-02-02 22:56:00,
2013-02-02 17:01:00,3.4,-6.0,30.55,WSW,251,2.0,4.0,64,0.00,,---,0.00,VWS V13.01,2013-02-02 23:01:00,
2013-02-02 17:07:00,3.0,-6.1,30.55,WSW,251,0.0,3.0,65,0.00,,---,0.00,VWS V13.01,2013-02-02 23:07:00,
2013-02-02 17:12:00,2.7,-6.1,30.55,WSW,252,1.0,3.0,66,0.00,,---,0.00,VWS V13.01,2013-02-02 23:12:00,
2013-02-02 17:17:00,2.3,-6.4,30.56,WSW,252,2.0,3.0,66,0.00,,---,0.00,VWS V13.01,2013-02-02 23:17:00,
2013-02-02 17:22:00,1.9,-6.5,30.56,WSW,252,0.0,3.0,67,0.00,,---,0.00,VWS V13.01,2013-02-02 23:22:00,
2013-02-02 17:28:00,1.5,-6.9,30.56,WSW,252,0.0,3.0,67,0.00,,---,0.00,VWS V13.01,2013-02-02 23:28:00,
2013-02-02 17:33:00,1.2,-6.9,30.58,WSW,252,0.0,0.0,68,0.00,,---,0.00,VWS V13.01,2013-02-02 23:33:00,
2013-02-02 17:38:00,0.8,-7.3,30.58,WSW,252,0.0,0.0,68,0.00,,---,0.00,VWS V13.01,2013-02-02 23:38:00,
2013-02-02 17:43:00,0.1,-7.4,30.58,WSW,252,0.0,0.0,70,0.00,,---,0.00,VWS V13.01,2013-02-02 23:43:00,
2013-02-02 17:49:00,-0.6,-8.0,30.58,WSW,252,0.0,0.0,70,0.00,,---,0.00,VWS V13.01,2013-02-02 23:49:00,
2013-02-02 17:54:00,-1.1,-8.2,30.58,WSW,252,0.0,1.0,71,0.00,,---,0.00,VWS V13.01,2013-02-02 23:54:00,
2013-02-02 17:59:00,-1.7,-8.8,30.58,WSW,252,0.0,1.0,71,0.00,,---,0.00,VWS V13.01,2013-02-02 23:59:00,
2013-02-02 18:04:00,-2.5,-9.6,30.60,WSW,252,0.0,0.0,71,0.00,,---,0.00,VWS V13.01,2013-02-03 00:04:00,
2013-02-02 18:10:00,-3.9,-10.6,30.60,WSW,252,0.0,1.0,72,0.00,,---,0.00,VWS V13.01,2013-02-03 00:10:00,
2013-02-02 18:15:00,-4.7,-10.9,30.60,WSW,252,0.0,1.0,74,0.00,,---,0.00,VWS V13.01,2013-02-03 00:15:00,
2013-02-02 18:20:00,-5.3,-11.2,30.64,WSW,252,0.0,0.0,75,0.00,,---,0.00,VWS V13.01,2013-02-03 00:20:00,
2013-02-02 18:25:00,-5.7,-11.6,30.64,WSW,252,0.0,0.0,75,0.00,,---,0.00,VWS V13.01,2013-02-03 00:25:00,
2013-02-02 18:31:00,-6.1,-11.7,30.64,WSW,252,0.0,0.0,76,0.00,,---,0.00,VWS V13.01,2013-02-03 00:31:00,
2013-02-02 18:36:00,-6.3,-11.9,30.63,WSW,252,0.0,0.0,76,0.00,,---,0.00,VWS V13.01,2013-02-03 00:36:00,
2013-02-02 18:41:00,-6.7,-12.3,30.63,WSW,252,0.0,0.0,76,0.00,,---,0.00,VWS V13.01,2013-02-03 00:41:00,
2013-02-02 18:46:00,-7.0,-12.6,30.64,WSW,252,0.0,0.0,76,0.00,,---,0.00,VWS V13.01,2013-02-03 00:46:00,
2013-02-02 18:52:00,-7.3,-12.9,30.64,WSW,252,0.0,0.0,76,0.00,,---,0.00,VWS V13.01,2013-02-03 00:52:00,
2013-02-02 18:57:00,-7.2,-12.5,30.64,WSW,252,0.0,0.0,77,0.00,,---,0.00,VWS V13.01,2013-02-03 00:57:00,
2013-02-02 19:02:00,-6.9,-11.9,30.63,WSW,252,0.0,0.0,78,0.00,,---,0.00,VWS V13.01,2013-02-03 01:02:00,
2013-02-02 19:08:00,-6.6,-11.6,30.63,WSW,252,0.0,0.0,78,0.00,,---,0.00,VWS V13.01,2013-02-03 01:08:00,
2013-02-02 19:13:00,-6.3,-11.1,30.63,WSW,252,0.0,0.0,79,0.00,,---,0.00,VWS V13.01,2013-02-03 01:13:00,
2013-02-02 19:18:00,-5.9,-11.0,30.62,WSW,252,0.0,0.0,78,0.00,,---,0.00,VWS V13.01,2013-02-03 01:18:00,
2013-02-02 19:23:00,-5.9,-11.2,30.62,WSW,252,0.0,0.0,77,0.00,,---,0.00,VWS V13.01,2013-02-03 01:23:00,
2013-02-02 19:29:00,-6.0,-11.6,30.62,WSW,252,0.0,0.0,76,0.00,,---,0.00,VWS V13.01,2013-02-03 01:29:00,
2013-02-02 19:34:00,-5.9,-11.2,30.61,WSW,252,0.0,0.0,77,0.00,,---,0.00,VWS V13.01,2013-02-03 01:34:00,
2013-02-02 19:39:00,-5.7,-11.0,30.61,WSW,252,0.0,0.0,77,0.00,,---,0.00,VWS V13.01,2013-02-03 01:39:00,
2013-02-02 19:44:00,-5.5,-10.8,30.61,WSW,252,0.0,0.0,77,0.00,,---,0.00,VWS V13.01,2013-02-03 01:44:00,
2013-02-02 19:50:00,-5.1,-10.2,30.61,WSW,252,0.0,1.0,78,0.00,,---,0.00,VWS V13.01,2013-02-03 01:50:00,
2013-02-02 19:55:00,-4.3,-9.4,30.61,WSW,252,0.0,2.0,78,0.00,,---,0.00,VWS V13.01,2013-02-03 01:55:00,
2013-02-02 20:00:00,-3.3,-8.4,30.61,WSW,252,0.0,2.0,78,0.00,,---,0.00,VWS V13.01,2013-02-03 02:00:00,
2013-02-02 20:05:00,-2.4,-8.1,30.57,WSW,252,0.0,2.0,76,0.00,,---,0.00,VWS V13.01,2013-02-03 02:05:00,
2013-02-02 20:11:00,-1.7,-7.7,30.57,WSW,246,3.0,5.0,75,0.00,,---,0.00,VWS V13.01,2013-02-03 02:11:00,
2013-02-02 20:16:00,-1.1,-7.4,30.42,WSW,246,1.0,5.0,74,0.00,,---,0.00,VWS V13.01,2013-02-03 02:16:00,
2013-02-02 20:21:00,-0.8,-7.4,30.42,WSW,257,0.0,5.0,73,0.00,,---,0.00,VWS V13.01,2013-02-03 02:21:00,
2013-02-02 20:27:00,-0.6,-7.2,30.42,WSW,256,2.0,5.0,73,0.00,,---,0.00,VWS V13.01,2013-02-03 02:27:00,
2013-02-02 20:32:00,-0.3,-6.9,30.40,WSW,252,2.0,5.0,73,0.00,,---,0.00,VWS V13.01,2013-02-03 02:32:00,
2013-02-02 20:37:00,-0.1,-7.0,30.40,WSW,252,0.0,4.0,72,0.00,,---,0.00,VWS V13.01,2013-02-03 02:37:00,
2013-02-02 20:42:00,-0.1,-6.9,30.40,WSW,252,1.0,4.0,72,0.00,,---,0.00,VWS V13.01,2013-02-03 02:42:00,
2013-02-02 20:47:00,0.1,-6.9,30.40,WSW,254,1.0,2.0,72,0.00,,---,0.00,VWS V13.01,2013-02-03 02:47:00,
2013-02-02 20:53:00,0.1,-6.8,30.40,WSW,254,0.0,4.0,72,0.00,,---,0.00,VWS V13.01,2013-02-03 02:53:00,
2013-02-02 20:58:00,0.1,-6.9,30.40,WSW,252,3.0,4.0,72,0.00,,---,0.00,VWS V13.01,2013-02-03 02:58:00,
2013-02-02 21:03:00,-0.1,-7.0,30.39,WSW,251,1.0,3.0,72,0.00,,---,0.00,VWS V13.01,2013-02-03 03:03:00,
2013-02-02 21:09:00,-0.2,-7.1,30.39,WSW,252,2.0,4.0,72,0.00,,---,0.00,VWS V13.01,2013-02-03 03:09:00,
2013-02-02 21:14:00,-0.3,-7.2,30.39,WSW,252,0.0,4.0,72,0.00,,---,0.00,VWS V13.01,2013-02-03 03:14:00,
2013-02-02 21:19:00,-0.3,-7.2,30.33,WSW,252,1.0,2.0,72,0.00,,---,0.00,VWS V13.01,2013-02-03 03:19:00,
2013-02-02 21:24:00,-0.4,-7.0,30.33,WSW,254,3.0,4.0,73,0.00,,---,0.00,VWS V13.01,2013-02-03 03:24:00,
2013-02-02 21:30:00,-0.4,-7.0,30.33,WSW,256,0.0,4.0,73,0.00,,---,0.00,VWS V13.01,2013-02-03 03:30:00,
2013-02-02 21:35:00,-0.3,-6.9,30.32,West,268,1.0,4.0,73,0.00,,---,0.00,VWS V13.01,2013-02-03 03:35:00,
2013-02-02 21:40:00,-0.3,-6.9,30.32,West,262,4.0,4.0,73,0.00,,---,0.00,VWS V13.01,2013-02-03 03:40:00,
2013-02-02 21:46:00,-0.1,-6.7,30.32,WSW,252,0.0,5.0,73,0.00,,---,0.00,VWS V13.01,2013-02-03 03:46:00,
2013-02-02 21:51:00,-0.1,-6.7,30.32,WSW,254,3.0,4.0,73,0.00,,---,0.00,VWS V13.01,2013-02-03 03:51:00,
2013-02-02 21:56:00,-0.2,-6.8,30.32,West,259,2.0,6.0,73,0.00,,---,0.00,VWS V13.01,2013-02-03 03:56:00,
2013-02-02 22:01:00,-0.3,-6.9,30.32,West,259,1.0,6.0,73,0.00,,---,0.00,VWS V13.01,2013-02-03 04:01:00,
2013-02-02 22:06:00,-0.3,-6.6,30.32,West,264,2.0,6.0,74,0.00,,---,0.00,VWS V13.01,2013-02-03 04:06:00,
2013-02-02 22:12:00,-0.4,-6.7,30.32,WSW,258,1.0,6.0,74,0.00,,---,0.00,VWS V13.01,2013-02-03 04:12:00,
2013-02-02 22:17:00,-0.5,-6.8,30.28,West,261,1.0,6.0,74,0.00,,---,0.00,VWS V13.01,2013-02-03 04:17:00,
2013-02-02 22:22:00,-0.6,-6.9,30.28,West,259,1.0,6.0,74,0.00,,---,0.00,VWS V13.01,2013-02-03 04:22:00,
2013-02-02 22:27:00,-0.6,-6.9,30.28,WSW,258,2.0,6.0,74,0.00,,---,0.00,VWS V13.01,2013-02-03 04:27:00,
2013-02-02 22:33:00,-0.6,-6.9,30.28,West,262,2.0,2.0,74,0.00,,---,0.00,VWS V13.01,2013-02-03 04:33:00,
2013-02-02 22:38:00,-0.6,-6.9,30.28,WSW,257,3.0,5.0,74,0.00,,---,0.00,VWS V13.01,2013-02-03 04:38:00,
2013-02-02 22:43:00,-0.5,-6.8,30.28,West,262,1.0,6.0,74,0.00,,---,0.00,VWS V13.01,2013-02-03 04:43:00,
2013-02-02 22:48:00,-0.5,-6.5,30.27,WSW,254,3.0,3.0,75,0.00,,---,0.00,VWS V13.01,2013-02-03 04:48:00,
2013-02-02 22:53:00,-0.4,-6.4,30.27,West,259,0.0,6.0,75,0.00,,---,0.00,VWS V13.01,2013-02-03 04:53:00,
2013-02-02 22:59:00,-0.3,-6.0,30.27,WSW,244,0.0,7.0,76,0.00,,---,0.00,VWS V13.01,2013-02-03 04:59:00,
2013-02-02 23:00:00,-0.3,-6.0,30.27,West,261,6.0,9.0,76,0.00,,---,0.00,VWS V13.01,2013-02-03 05:00:00,
2013-02-02 23:02:00,-0.3,-6.0,30.24,WSW,254,0.0,9.0,76,0.00,,---,0.00,VWS V13.01,2013-02-03 05:02:00,
2013-02-02 23:04:00,-0.3,-5.8,30.24,West,265,3.0,7.0,77,0.00,,---,0.00,VWS V13.01,2013-02-03 05:04:00,
2013-02-02 23:09:00,-0.3,-5.8,30.24,WSW,257,4.0,7.0,77,0.00,,---,0.00,VWS V13.01,2013-02-03 05:09:00,
2013-02-02 23:15:00,-0.3,-5.8,30.24,WSW,248,3.0,10.0,77,0.00,,---,0.00,VWS V13.01,2013-02-03 05:15:00,
2013-02-02 23:20:00,-0.3,-5.5,30.22,SW,217,3.0,7.0,78,0.00,,---,0.00,VWS V13.01,2013-02-03 05:20:00,
2013-02-02 23:25:00,-0.3,-5.5,30.22,WSW,244,1.0,7.0,78,0.00,,---,0.00,VWS V13.01,2013-02-03 05:25:00,
2013-02-02 23:30:00,-0.4,-5.3,30.22,WSW,254,3.0,7.0,79,0.00,,---,0.00,VWS V13.01,2013-02-03 05:30:00,
2013-02-02 23:35:00,-0.4,-5.3,30.22,West,265,3.0,7.0,79,0.00,,---,0.00,VWS V13.01,2013-02-03 05:35:00,
2013-02-02 23:40:00,-0.5,-5.2,30.22,West,273,4.0,7.0,80,0.00,,---,0.00,VWS V13.01,2013-02-03 05:40:00,
2013-02-02 23:46:00,-0.5,-5.2,30.22,West,267,5.0,7.0,80,0.00,,---,0.00,VWS V13.01,2013-02-03 05:46:00,
2013-02-02 23:51:00,-0.5,-5.2,30.24,West,274,0.0,8.0,80,0.00,,---,0.00,VWS V13.01,2013-02-03 05:51:00,
2013-02-02 23:56:00,-0.6,-5.0,30.24,West,267,1.0,8.0,81,0.00,,---,0.00,VWS V13.01,2013-02-03 05:56:00,